Time;durP1;ratioP1;P1;durP2;ratioP2;P2;SDS_P1;SDS_P2;PMS_P1;PMS_P2;Temp;Humidity;BMP_temperature;BMP_pressure;BME280_temperature;BME280_humidity;BME280_pressure;Samples;Min_cycle;Max_cycle;Signal;HPM_P1;HPM_P2
2021/04/11 00:00:43;;;;;;;88.38;48.72;;;;;;;6.46;100.00;100595.53;6199456;28;20422;-72
2021/04/11 00:03:43;;;;;;;84.85;47.65;;;;;;;6.45;100.00;100593.81;6199333;28;20050;-72
2021/04/11 00:06:44;;;;;;;81.85;45.70;;;;;;;6.44;100.00;100585.13;6199146;28;20090;-72
2021/04/11 00:09:46;;;;;;;85.63;47.47;;;;;;;6.37;100.00;100583.69;6199487;28;20053;-72
2021/04/11 00:12:47;;;;;;;85.85;47.67;;;;;;;6.47;100.00;100581.56;6197153;28;20054;-72
2021/04/11 00:15:48;;;;;;;81.82;45.05;;;;;;;6.46;100.00;100585.09;6193391;28;20058;-72
2021/04/11 00:18:49;;;;;;;80.32;44.10;;;;;;;6.43;100.00;100577.38;6199550;28;20054;-72
2021/04/11 00:21:49;;;;;;;85.63;45.80;;;;;;;6.40;100.00;100583.56;6199419;28;20510;-72
2021/04/11 00:24:51;;;;;;;83.47;44.05;;;;;;;6.45;100.00;100581.63;6199593;28;20136;-72
2021/04/11 00:27:52;;;;;;;81.85;43.85;;;;;;;6.46;100.00;100569.44;6199327;28;20062;-72
2021/04/11 00:30:53;;;;;;;75.28;43.50;;;;;;;6.51;100.00;100570.94;6199506;28;20112;-72
2021/04/11 00:33:54;;;;;;;77.28;42.63;;;;;;;6.45;100.00;100558.16;6199192;28;20558;-72
2021/04/11 00:36:55;;;;;;;73.78;41.28;;;;;;;6.46;100.00;100574.66;6198952;28;20057;-72
2021/04/11 00:39:56;;;;;;;75.70;41.15;;;;;;;6.61;100.00;100558.38;6298695;23;20492;-72
2021/04/11 00:43:01;;;;;;;69.60;39.08;;;;;;;6.53;100.00;100552.59;6271879;28;20496;-72
2021/04/11 00:46:14;;;;;;;67.88;38.83;;;;;;;6.57;100.00;100551.56;6272290;28;20065;-72
2021/04/11 00:49:18;;;;;;;68.97;39.53;;;;;;;6.58;100.00;100556.72;6230642;28;20046;-72
2021/04/11 00:52:19;;;;;;;71.43;39.45;;;;;;;6.57;100.00;100552.41;6222689;28;20050;-72
2021/04/11 00:55:24;;;;;;;80.13;42.03;;;;;;;6.53;100.00;100555.22;6222664;28;20073;-72
2021/04/11 00:58:27;;;;;;;75.05;40.20;;;;;;;6.51;100.00;100550.06;6222618;28;20052;-72
2021/04/11 01:01:28;;;;;;;78.35;42.53;;;;;;;6.52;100.00;100541.31;6222591;28;20045;-72
2021/04/11 01:04:29;;;;;;;73.22;40.15;;;;;;;6.63;100.00;100540.03;6222267;28;20053;-72
2021/04/11 01:07:30;;;;;;;76.10;41.92;;;;;;;6.67;100.00;100539.84;6222503;28;20116;-72
2021/04/11 01:10:37;;;;;;;71.80;40.13;;;;;;;6.61;100.00;100534.88;6222362;28;20085;-72
2021/04/11 01:13:43;;;;;;;78.43;41.95;;;;;;;6.60;100.00;100530.56;6222293;28;20053;-72
2021/04/11 01:16:44;;;;;;;74.57;40.00;;;;;;;6.67;100.00;100526.78;6222600;28;20594;-72
2021/04/11 01:19:49;;;;;;;78.97;41.45;;;;;;;6.58;100.00;100524.53;6221992;28;20108;-72
2021/04/11 01:23:09;;;;;;;73.65;41.30;;;;;;;6.64;100.00;100526.94;6221929;28;20421;-72
2021/04/11 01:26:13;;;;;;;75.68;41.65;;;;;;;6.60;100.00;100520.97;6222329;28;20057;-72
2021/04/11 01:29:14;;;;;;;80.75;41.53;;;;;;;6.61;100.00;100517.44;6222144;28;20053;-72
2021/04/11 01:32:15;;;;;;;86.07;43.67;;;;;;;6.55;100.00;100512.47;6221839;28;20069;-72
2021/04/11 01:35:18;;;;;;;90.93;44.05;;;;;;;6.58;100.00;100519.31;6221903;28;20104;-72
2021/04/11 01:38:21;;;;;;;85.10;43.00;;;;;;;6.65;100.00;100510.34;6223904;28;20049;-72
2021/04/11 01:41:28;;;;;;;79.05;40.22;;;;;;;6.70;100.00;100510.16;6227322;28;20053;-72
2021/04/11 01:44:34;;;;;;;92.13;43.40;;;;;;;6.63;100.00;100503.47;6226991;28;20517;-72
2021/04/11 01:47:35;;;;;;;79.30;42.40;;;;;;;6.69;100.00;100498.88;6226860;28;20058;-72
2021/04/11 01:50:36;;;;;;;78.57;40.15;;;;;;;6.67;100.00;100497.22;6226709;28;20049;-72
2021/04/11 01:53:38;;;;;;;85.50;41.85;;;;;;;6.67;100.00;100494.59;6226897;28;20457;-72
2021/04/11 01:56:41;;;;;;;83.28;42.75;;;;;;;6.74;100.00;100485.63;6226695;28;20533;-72
2021/04/11 01:59:42;;;;;;;87.72;43.08;;;;;;;6.69;100.00;100477.13;6226659;28;20049;-72
2021/04/11 02:02:43;;;;;;;87.57;41.97;;;;;;;6.68;100.00;100485.88;6226593;28;20053;-72
2021/04/11 02:05:46;;;;;;;83.82;40.47;;;;;;;6.75;100.00;100480.31;6226235;28;20058;-72
2021/04/11 02:08:50;;;;;;;81.05;40.40;;;;;;;6.79;100.00;100483.66;6226430;28;20061;-72
2021/04/11 02:11:52;;;;;;;73.85;39.22;;;;;;;6.84;100.00;100476.47;6226166;28;20049;-71
2021/04/11 02:14:53;;;;;;;69.72;34.47;;;;;;;6.79;100.00;100473.22;6226260;28;20402;-72
2021/04/11 02:17:55;;;;;;;66.38;34.58;;;;;;;6.82;100.00;100467.88;6226396;28;20104;-72
2021/04/11 02:20:58;;;;;;;65.28;34.65;;;;;;;6.78;100.00;100467.16;6226614;28;20061;-72
2021/04/11 02:23:59;;;;;;;78.43;36.22;;;;;;;6.81;100.00;100467.03;6226287;28;20462;-72
2021/04/11 02:27:01;;;;;;;71.57;36.00;;;;;;;6.79;100.00;100463.59;6226402;28;20096;-72
2021/04/11 02:30:04;;;;;;;63.80;33.72;;;;;;;6.78;100.00;100453.25;6226226;28;20049;-72
2021/04/11 02:33:05;;;;;;;64.45;33.42;;;;;;;6.84;100.00;100448.59;6225892;28;20502;-72
2021/04/11 02:36:07;;;;;;;63.92;32.33;;;;;;;6.79;100.00;100458.38;6225981;28;20056;-72
2021/04/11 02:39:12;;;;;;;68.03;33.67;;;;;;;6.82;100.00;100445.22;6225760;28;20053;-72
2021/04/11 02:42:17;;;;;;;61.13;32.15;;;;;;;6.86;100.00;100438.09;6225686;28;20057;-72
2021/04/11 02:45:25;;;;;;;61.15;31.27;;;;;;;6.86;100.00;100446.78;6225624;28;20100;-72
2021/04/11 02:48:26;;;;;;;72.15;34.33;;;;;;;6.82;100.00;100441.75;6225321;28;20728;-72
2021/04/11 02:51:30;;;;;;;71.90;33.55;;;;;;;6.84;100.00;100439.91;6225552;28;20100;-72
2021/04/11 02:54:32;;;;;;;62.75;31.65;;;;;;;6.85;100.00;100426.78;6225234;28;20058;-72
2021/04/11 02:57:33;;;;;;;63.20;30.17;;;;;;;6.89;100.00;100422.28;6225226;28;20049;-71
2021/04/11 03:00:37;;;;;;;60.10;30.65;;;;;;;6.91;100.00;100422.22;6225040;28;20041;-72
2021/04/11 03:03:39;;;;;;;61.88;31.60;;;;;;;6.94;100.00;100429.91;6224820;28;20054;-72
2021/04/11 03:06:43;;;;;;;60.75;31.42;;;;;;;6.93;100.00;100409.94;6225271;28;20073;-72
2021/04/11 03:09:48;;;;;;;61.15;32.10;;;;;;;6.93;100.00;100418.63;6224751;28;20053;-72
2021/04/11 03:12:50;;;;;;;65.82;30.90;;;;;;;6.91;100.00;100414.41;6225011;28;20050;-71
2021/04/11 03:15:56;;;;;;;65.78;31.45;;;;;;;6.92;100.00;100408.25;6224839;28;20053;-71
2021/04/11 03:18:57;;;;;;;63.28;31.50;;;;;;;6.90;100.00;100416.13;6224753;28;20053;-71
2021/04/11 03:21:58;;;;;;;81.15;34.50;;;;;;;6.92;100.00;100409.09;6224572;28;20077;-72
2021/04/11 03:24:59;;;;;;;71.88;33.17;;;;;;;6.94;100.00;100416.84;6224566;28;20061;-72
2021/04/11 03:28:05;;;;;;;67.10;33.75;;;;;;;6.93;100.00;100402.09;6224741;28;20548;-72
2021/04/11 03:31:12;;;;;;;74.85;35.47;;;;;;;6.94;100.00;100406.41;6224375;28;20560;-71
2021/04/11 03:34:15;;;;;;;67.40;32.78;;;;;;;6.99;100.00;100409.66;6224357;28;20517;-72
2021/04/11 03:37:17;;;;;;;77.70;34.47;;;;;;;6.93;100.00;100408.16;6224063;28;20053;-72
2021/04/11 03:40:23;;;;;;;65.38;33.30;;;;;;;6.94;100.00;100409.00;6224401;28;20049;-72
2021/04/11 03:43:28;;;;;;;70.88;32.78;;;;;;;6.93;100.00;100410.78;6224175;28;20054;-72
2021/04/11 03:46:34;;;;;;;66.47;31.27;;;;;;;6.97;100.00;100414.13;6224344;28;20053;-72
2021/04/11 03:49:43;;;;;;;70.10;32.38;;;;;;;6.98;100.00;100411.41;6223824;28;20449;-71
2021/04/11 03:52:48;;;;;;;65.18;30.92;;;;;;;6.99;100.00;100407.03;6224141;28;20416;-71
2021/04/11 03:55:50;;;;;;;71.43;31.48;;;;;;;7.06;100.00;100398.03;6224016;28;20076;-71
2021/04/11 03:58:59;;;;;;;68.10;31.50;;;;;;;7.05;100.00;100393.72;6223882;28;20049;-71
2021/04/11 04:02:00;;;;;;;;;;;;;;;7.06;100.00;100396.25;6223579;28;20042;-71
2021/04/11 04:05:06;;;;;;;68.32;31.60;;;;;;;7.05;100.00;100391.13;6223665;28;19922;-71
2021/04/11 04:08:07;;;;;;;60.20;28.15;;;;;;;7.12;100.00;100402.97;6223575;28;20053;-71
2021/04/11 04:11:18;;;;;;;56.72;28.42;;;;;;;7.09;100.00;100401.38;6223630;28;20046;-71
2021/04/11 04:14:30;;;;;;;57.63;26.45;;;;;;;7.14;100.00;100395.94;6223253;28;20541;-71
2021/04/11 04:17:42;;;;;;;55.08;27.23;;;;;;;7.23;100.00;100400.75;6223577;28;20058;-71
2021/04/11 04:20:49;;;;;;;50.58;24.85;;;;;;;7.20;100.00;100400.88;6223352;28;20053;-71
2021/04/11 04:23:58;;;;;;;53.42;26.95;;;;;;;7.18;100.00;100394.88;6223322;28;20054;-71
2021/04/11 04:27:09;;;;;;;57.53;27.23;;;;;;;7.20;100.00;100397.41;6223234;28;20054;-71
2021/04/11 04:30:19;;;;;;;54.22;25.65;;;;;;;7.22;100.00;100395.56;6223164;28;20042;-71
2021/04/11 04:33:53;;;;;;;51.97;25.60;;;;;;;7.25;100.00;100396.28;6222926;28;20057;-71
2021/04/11 04:37:06;;;;;;;54.83;27.83;;;;;;;7.24;100.00;100389.38;6223037;28;20045;-71
2021/04/11 04:40:10;;;;;;;54.03;26.10;;;;;;;7.26;100.00;100390.13;6223051;28;20045;-71
2021/04/11 04:43:21;;;;;;;54.70;26.38;;;;;;;7.25;100.00;100383.22;6222928;28;20052;-71
2021/04/11 04:46:32;;;;;;;53.70;26.20;;;;;;;7.31;100.00;100382.09;6223201;28;20045;-71
2021/04/11 04:49:40;;;;;;;57.40;27.27;;;;;;;7.27;100.00;100386.63;6222841;28;20046;-71
2021/04/11 04:52:45;;;;;;;46.70;24.35;;;;;;;7.30;100.00;100386.47;6222887;28;20045;-71
2021/04/11 04:55:49;;;;;;;55.25;24.65;;;;;;;7.30;100.00;100383.00;6222730;28;20058;-70
2021/04/11 04:58:55;;;;;;;59.25;24.92;;;;;;;7.30;100.00;100378.63;6222696;28;20054;-70
2021/04/11 05:02:02;;;;;;;51.03;23.48;;;;;;;7.26;100.00;100379.69;6222579;28;20127;-71
2021/04/11 05:05:07;;;;;;;53.47;22.60;;;;;;;7.28;100.00;100374.41;6222465;28;20461;-70
2021/04/11 05:08:13;;;;;;;48.60;23.95;;;;;;;7.29;100.00;100392.63;6222315;28;20045;-70
2021/04/11 05:11:19;;;;;;;47.13;22.00;;;;;;;7.33;100.00;100388.09;6222568;28;20050;-71
2021/04/11 05:14:23;;;;;;;48.95;21.48;;;;;;;7.33;100.00;100388.09;6222174;28;20056;-71
2021/04/11 05:17:30;;;;;;;50.53;22.23;;;;;;;7.33;100.00;100386.34;6242227;28;20540;-71
2021/04/11 05:20:34;;;;;;;49.60;22.48;;;;;;;7.31;100.00;100372.50;6243154;28;20046;-71
2021/04/11 05:23:40;;;;;;;42.63;20.88;;;;;;;7.35;100.00;100384.47;6244805;28;20049;-71
2021/04/11 05:26:45;;;;;;;48.83;21.98;;;;;;;7.42;100.00;100384.22;6245883;28;20060;-71
2021/04/11 05:29:53;;;;;;;44.65;22.13;;;;;;;7.43;100.00;100386.75;6242142;28;20053;-71
2021/04/11 05:32:55;;;;;;;39.40;19.85;;;;;;;7.50;100.00;100385.56;6243200;28;20049;-71
2021/04/11 05:36:03;;;;;;;42.60;20.98;;;;;;;7.47;100.00;100396.16;6244785;28;20049;-71
2021/04/11 05:39:13;;;;;;;43.15;21.35;;;;;;;7.51;100.00;100392.50;6244820;28;20049;-71
2021/04/11 05:42:19;;;;;;;42.15;19.67;;;;;;;7.50;100.00;100388.19;6243639;28;20053;-71
2021/04/11 05:45:24;;;;;;;41.97;19.20;;;;;;;7.51;100.00;100389.03;6246266;28;20564;-72
2021/04/11 05:48:35;;;;;;;42.90;20.00;;;;;;;7.54;100.00;100386.25;6246081;28;20425;-71
2021/04/11 05:51:40;;;;;;;40.65;19.58;;;;;;;7.61;100.00;100403.34;6246672;28;20045;-71
2021/04/11 05:54:46;;;;;;;39.78;19.70;;;;;;;7.70;100.00;100404.69;6243641;28;20037;-71
2021/04/11 05:57:52;;;;;;;38.47;19.80;;;;;;;7.72;100.00;100401.09;6240855;28;20049;-71
2021/04/11 06:01:00;;;;;;;33.60;17.55;;;;;;;7.74;100.00;100407.09;6244246;28;20061;-71
2021/04/11 06:04:07;;;;;;;38.78;17.98;;;;;;;7.74;100.00;100403.63;6244611;28;20111;-71
2021/04/11 06:07:11;;;;;;;27.85;15.07;;;;;;;7.79;100.00;100402.50;6242688;28;20045;-71
2021/04/11 06:10:16;;;;;;;30.50;15.70;;;;;;;7.76;100.00;100410.47;6244517;28;20073;-71
2021/04/11 06:13:23;;;;;;;29.00;15.02;;;;;;;7.82;100.00;100410.22;6245101;28;20528;-71
2021/04/11 06:16:27;;;;;;;26.77;14.20;;;;;;;7.82;100.00;100404.97;6246499;28;20053;-71
2021/04/11 06:19:29;;;;;;;35.15;15.60;;;;;;;7.80;100.00;100403.34;6246126;28;20049;-71
2021/04/11 06:22:36;;;;;;;31.70;15.10;;;;;;;7.85;100.00;100417.03;6237709;28;20044;-71
2021/04/11 06:25:42;;;;;;;33.42;14.38;;;;;;;7.89;100.00;100418.59;6249545;28;20079;-71
2021/04/11 06:28:49;;;;;;;22.15;13.30;;;;;;;7.91;100.00;100415.94;6250501;28;20057;-71
2021/04/11 06:31:59;;;;;;;25.25;12.88;;;;;;;7.89;100.00;100419.44;6250000;28;20378;-71
2021/04/11 06:35:05;;;;;;;23.52;12.70;;;;;;;7.99;100.00;100422.47;6249152;28;20049;-71
2021/04/11 06:38:10;;;;;;;26.45;13.43;;;;;;;7.98;100.00;100422.56;6271609;23;20061;-73
2021/04/11 06:41:37;;;;;;;22.83;12.85;;;;;;;7.99;100.00;100432.94;6274073;28;20149;-74
2021/04/11 06:44:59;;;;;;;27.77;13.68;;;;;;;8.08;100.00;100429.03;6230192;28;20499;-73
2021/04/11 06:48:21;;;;;;;21.48;13.13;;;;;;;8.18;100.00;100434.69;6271551;28;20098;-73
2021/04/11 06:51:44;;;;;;;23.40;12.77;;;;;;;8.21;100.00;100424.06;6250238;28;20053;-73
2021/04/11 06:54:56;;;;;;;23.33;12.35;;;;;;;8.20;100.00;100430.22;6249846;28;20440;-73
2021/04/11 06:58:06;;;;;;;21.23;12.30;;;;;;;8.18;100.00;100438.16;6249956;28;20053;-73
2021/04/11 07:01:57;;;;;;;20.02;11.75;;;;;;;8.26;100.00;100441.22;6249939;28;20041;-73
2021/04/11 07:05:10;;;;;;;21.75;10.48;;;;;;;8.28;100.00;100438.56;6173639;28;20053;-75
2021/04/11 07:08:43;;;;;;;19.98;11.60;;;;;;;8.19;100.00;100446.84;6180451;28;20058;-74
2021/04/11 07:12:04;;;;;;;24.55;11.55;;;;;;;8.21;100.00;100458.09;6249140;28;20443;-75
2021/04/11 07:15:26;;;;;;;20.52;11.40;;;;;;;8.49;100.00;100466.31;6249363;28;20049;-74
2021/04/11 07:19:00;;;;;;;21.50;10.82;;;;;;;8.41;100.00;100460.63;6249579;28;20529;-74
2021/04/11 07:22:50;;;;;;;16.88;9.77;;;;;;;8.37;100.00;100456.47;6242831;28;20493;-74
2021/04/11 07:26:16;;;;;;;27.10;11.25;;;;;;;8.43;100.00;100460.53;6149290;29;20498;-74
2021/04/11 07:29:29;;;;;;;20.13;10.93;;;;;;;8.49;100.00;100465.47;6249238;28;20053;-74
2021/04/11 07:32:46;;;;;;;23.52;10.82;;;;;;;8.61;100.00;100463.09;6249147;28;20045;-74
2021/04/11 07:36:28;;;;;;;22.63;11.68;;;;;;;8.64;100.00;100462.97;6247890;28;20056;-74
2021/04/11 07:39:47;;;;;;;19.40;11.15;;;;;;;8.72;100.00;100466.94;6238613;28;20460;-74
2021/04/11 07:43:21;;;;;;;20.73;12.00;;;;;;;8.78;100.00;100477.13;6234285;28;20065;-74
2021/04/11 07:46:41;;;;;;;25.02;13.88;;;;;;;8.83;100.00;100475.97;6234427;28;20095;-75
2021/04/11 07:50:00;;;;;;;;;;;;;;;8.94;100.00;100483.28;6235302;28;20070;-74
2021/04/11 07:53:29;;;;;;;24.50;12.88;;;;;;;9.23;100.00;100480.97;6232529;28;19966;-74
2021/04/11 07:56:45;;;;;;;15.07;9.07;;;;;;;9.32;100.00;100481.31;6225043;28;20057;-71
2021/04/11 08:00:03;;;;;;;12.13;8.38;;;;;;;9.09;100.00;100485.16;6241943;28;20046;-73
2021/04/11 08:03:20;;;;;;;11.18;7.10;;;;;;;9.27;100.00;100498.22;6232216;28;20046;-73
2021/04/11 08:06:48;;;;;;;10.77;7.05;;;;;;;9.17;100.00;100510.94;6224735;28;20572;-74
2021/04/11 08:09:51;;;;;;;6.78;5.18;;;;;;;9.05;100.00;100501.09;6227074;28;20123;-72
2021/04/11 08:13:07;;;;;;;6.53;5.18;;;;;;;9.10;100.00;100501.72;6222877;28;20053;-73
2021/04/11 08:16:26;;;;;;;6.55;5.28;;;;;;;8.95;100.00;100508.59;6223583;28;20056;-74
2021/04/11 08:20:05;;;;;;;9.50;5.70;;;;;;;8.98;100.00;100516.28;6239628;28;20037;-74
2021/04/11 08:23:32;;;;;;;7.93;6.20;;;;;;;8.72;100.00;100511.47;6247355;28;20929;-74
2021/04/11 08:27:07;;;;;;;8.15;6.95;;;;;;;8.59;100.00;100522.59;6247949;28;20649;-74
2021/04/11 08:30:17;;;;;;;8.52;6.50;;;;;;;8.73;100.00;100532.38;6240137;28;20100;-74
2021/04/11 08:34:07;;;;;;;9.15;7.05;;;;;;;8.58;100.00;100548.84;6235432;28;20042;-73
2021/04/11 08:37:24;;;;;;;11.60;8.75;;;;;;;8.34;100.00;100558.69;6228787;28;20050;-73
2021/04/11 08:40:38;;;;;;;13.02;7.85;;;;;;;8.21;100.00;100578.50;6237895;28;20056;-74
2021/04/11 08:44:00;;;;;;;11.35;7.25;;;;;;;8.00;100.00;100588.19;6247920;28;20064;-75
2021/04/11 08:47:14;;;;;;;10.45;7.93;;;;;;;7.63;100.00;100580.22;6247103;28;20053;-74
2021/04/11 08:50:20;;;;;;;12.27;9.00;;;;;;;7.75;100.00;100583.19;6247136;28;20057;-72
2021/04/11 08:53:31;;;;;;;11.13;8.68;;;;;;;7.66;100.00;100592.28;6247039;28;20056;-73
2021/04/11 08:56:39;;;;;;;10.98;8.18;;;;;;;7.35;100.00;100596.22;6247327;28;20096;-76
2021/04/11 08:59:55;;;;;;;9.63;7.50;;;;;;;7.46;100.00;100611.47;6247007;28;20064;-73
2021/04/11 09:03:13;;;;;;;8.23;5.80;;;;;;;7.14;100.00;100612.81;6247096;28;20045;-74
2021/04/11 09:06:28;;;;;;;7.30;5.00;;;;;;;7.04;100.00;100614.97;6246949;28;20045;-73
2021/04/11 09:09:50;;;;;;;6.40;4.75;;;;;;;7.10;100.00;100622.53;6246898;28;20053;-73
2021/04/11 09:13:00;;;;;;;6.63;4.65;;;;;;;7.14;100.00;100641.56;6246961;28;20053;-73
2021/04/11 09:16:07;;;;;;;6.13;4.70;;;;;;;7.02;100.00;100642.06;6246916;28;20050;-73
2021/04/11 09:19:19;;;;;;;6.75;5.22;;;;;;;6.83;100.00;100653.25;6247010;28;20045;-73
2021/04/11 09:22:33;;;;;;;10.75;8.65;;;;;;;6.78;100.00;100655.19;6246858;28;20041;-74
2021/04/11 09:25:36;;;;;;;14.30;10.50;;;;;;;6.82;100.00;100659.38;6240429;28;20083;-72
2021/04/11 09:28:48;;;;;;;9.20;7.20;;;;;;;6.56;100.00;100678.66;6239264;28;20050;-72
2021/04/11 09:32:02;;;;;;;10.07;7.10;;;;;;;6.66;100.00;100671.31;6222228;28;20052;-72
2021/04/11 09:35:22;;;;;;;9.23;7.10;;;;;;;6.53;100.00;100701.41;6239735;28;20489;-73
2021/04/11 09:38:34;;;;;;;;;;;;;;;6.52;100.00;100702.31;6247264;28;20050;-73
2021/04/11 09:41:51;;;;;;;10.77;8.35;;;;;;;6.49;100.00;100699.81;6246405;28;19928;-74
2021/04/11 09:45:08;;;;;;;12.43;9.85;;;;;;;6.55;100.00;100710.06;6246045;28;20053;-73
2021/04/11 09:48:32;;;;;;;12.40;8.50;;;;;;;6.47;100.00;100702.50;6246519;28;20053;-74
2021/04/11 09:51:50;;;;;;;9.45;6.25;;;;;;;6.18;100.00;100700.13;6246356;28;20045;-72
2021/04/11 09:55:03;;;;;;;10.18;7.30;;;;;;;6.25;100.00;100701.56;6245749;28;20629;-72
2021/04/11 09:58:19;;;;;;;15.52;11.18;;;;;;;6.14;100.00;100701.97;6246146;28;20103;-73
2021/04/11 10:01:26;;;;;;;13.85;8.32;;;;;;;6.07;100.00;100703.09;6227352;28;20062;-72
2021/04/11 10:04:38;;;;;;;10.65;6.95;;;;;;;6.11;100.00;100709.91;6226177;28;20054;-73
2021/04/11 10:07:52;;;;;;;9.82;7.18;;;;;;;6.18;100.00;100713.16;6226675;28;20085;-72
2021/04/11 10:11:21;;;;;;;12.70;8.80;;;;;;;6.05;100.00;100708.38;6226613;28;20046;-73
2021/04/11 10:14:40;;;;;;;14.75;8.50;;;;;;;6.36;100.00;100709.88;6225615;28;20417;-73
2021/04/11 10:18:14;;;;;;;13.18;8.95;;;;;;;6.43;100.00;100715.72;6226259;28;20528;-73
2021/04/11 10:21:24;;;;;;;9.70;7.07;;;;;;;6.14;99.76;100716.78;6226283;28;20041;-73
2021/04/11 10:24:41;;;;;;;9.18;6.70;;;;;;;6.04;100.00;100724.06;6225757;28;20108;-72
2021/04/11 10:27:54;;;;;;;10.82;7.03;;;;;;;5.90;98.84;100726.25;6226258;28;20465;-73
2021/04/11 10:31:02;;;;;;;11.52;8.23;;;;;;;5.78;100.00;100732.75;6226064;28;20450;-72
2021/04/11 10:34:11;;;;;;;11.70;8.05;;;;;;;5.79;100.00;100730.09;6229960;28;20425;-75
2021/04/11 10:37:22;;;;;;;11.68;7.65;;;;;;;5.74;100.00;100734.59;6226136;28;20053;-73
2021/04/11 10:40:51;;;;;;;13.43;8.63;;;;;;;5.78;100.00;100733.59;6225567;28;20054;-72
2021/04/11 10:44:10;;;;;;;10.40;6.95;;;;;;;5.80;99.12;100736.16;6225582;28;20057;-72
2021/04/11 10:47:31;;;;;;;9.18;6.63;;;;;;;5.81;99.74;100749.16;6225778;28;20440;-72
2021/04/11 10:50:40;;;;;;;10.30;6.43;;;;;;;5.82;98.97;100755.22;6225288;28;20410;-72
2021/04/11 10:53:55;;;;;;;10.50;6.25;;;;;;;5.76;99.67;100756.25;6225574;28;20057;-74
2021/04/11 10:57:21;;;;;;;6.20;4.78;;;;;;;5.91;96.61;100769.72;6225556;28;20053;-72
2021/04/11 11:00:33;;;;;;;8.30;5.53;;;;;;;5.76;96.56;100761.47;6225129;28;20096;-73
2021/04/11 11:04:09;;;;;;;11.18;5.40;;;;;;;5.48;97.63;100777.16;6225208;28;20058;-73
2021/04/11 11:07:22;;;;;;;8.10;6.13;;;;;;;5.41;99.26;100775.66;6225224;28;20053;-73
2021/04/11 11:10:39;;;;;;;8.30;6.13;;;;;;;5.47;99.61;100788.50;6224973;28;20521;-72
2021/04/11 11:14:05;;;;;;;7.53;5.70;;;;;;;5.51;99.13;100789.25;6225143;28;20049;-73
2021/04/11 11:17:25;;;;;;;10.85;6.32;;;;;;;5.57;98.71;100796.88;6224890;28;20057;-73
2021/04/11 11:20:31;;;;;;;7.65;5.45;;;;;;;5.53;96.55;100803.94;6224981;28;20046;-73
2021/04/11 11:23:56;;;;;;;7.35;6.18;;;;;;;5.41;97.62;100812.16;6224549;28;20046;-73
2021/04/11 11:27:35;;;;;;;7.15;5.53;;;;;;;5.46;97.53;100825.03;6233274;28;20111;-73
2021/04/11 11:30:56;;;;;;;5.93;4.85;;;;;;;5.33;97.61;100821.97;6169345;28;20058;-76
2021/04/11 11:34:27;;;;;;;6.28;4.10;;;;;;;5.60;97.27;100826.31;6236040;28;20049;-74
2021/04/11 11:37:41;;;;;;;5.07;3.22;;;;;;;5.53;95.36;100837.81;6231753;28;20079;-74
2021/04/11 11:40:52;;;;;;;8.40;4.40;;;;;;;5.41;97.14;100846.03;6236521;28;20509;-74
2021/04/11 11:44:02;;;;;;;5.13;3.80;;;;;;;5.16;97.69;100856.31;6223964;28;20510;-74
2021/04/11 11:47:11;;;;;;;4.78;4.00;;;;;;;5.15;96.38;100870.25;6224558;28;20061;-75
2021/04/11 11:50:20;;;;;;;6.15;4.90;;;;;;;4.94;96.29;100855.22;6224323;28;20494;-75
2021/04/11 11:53:26;;;;;;;5.25;3.83;;;;;;;4.95;96.56;100868.22;6224092;28;20054;-74
2021/04/11 11:56:30;;;;;;;5.60;4.18;;;;;;;5.04;97.25;100865.34;6226258;28;20046;-74
2021/04/11 11:59:37;;;;;;;7.10;4.07;;;;;;;5.13;97.05;100865.97;6229033;28;20054;-74
2021/04/11 12:02:47;;;;;;;3.47;3.13;;;;;;;5.21;96.60;100871.81;6248534;28;20519;-73
2021/04/11 12:05:57;;;;;;;5.38;3.53;;;;;;;5.01;96.65;100878.47;6247852;28;20530;-74
2021/04/11 12:09:06;;;;;;;7.50;3.58;;;;;;;4.90;97.28;100874.44;6240212;28;20048;-75
2021/04/11 12:12:14;;;;;;;10.32;3.70;;;;;;;5.03;97.67;100891.44;6226823;28;20053;-74
2021/04/11 12:15:23;;;;;;;3.88;2.78;;;;;;;5.07;97.43;100893.91;6223932;28;20180;-74
2021/04/11 12:18:28;;;;;;;3.97;2.80;;;;;;;5.02;97.88;100898.38;6223566;28;20046;-75
2021/04/11 12:21:37;;;;;;;4.28;2.60;;;;;;;5.08;96.98;100902.56;6223296;28;20288;-74
2021/04/11 12:24:48;;;;;;;4.28;2.85;;;;;;;5.03;99.10;100913.13;6223476;28;20054;-74
2021/04/11 12:27:50;;;;;;;5.47;2.20;;;;;;;5.16;97.27;100916.22;6223152;28;20046;-74
2021/04/11 12:30:52;;;;;;;4.28;2.30;;;;;;;5.19;96.98;100920.53;6223053;28;20526;-74
2021/04/11 12:33:59;;;;;;;1.80;1.42;;;;;;;5.44;94.29;100936.28;6223057;28;20057;-74
2021/04/11 12:37:13;;;;;;;2.58;1.40;;;;;;;5.16;95.33;100918.00;6223340;28;20089;-74
2021/04/11 12:40:32;;;;;;;4.57;1.60;;;;;;;5.12;92.93;100917.22;6222982;28;20046;-74
2021/04/11 12:43:41;;;;;;;3.95;1.25;;;;;;;5.30;90.33;100919.28;6222700;28;20046;-75
2021/04/11 12:46:48;;;;;;;5.43;1.25;;;;;;;5.31;91.21;100931.44;6222864;28;20072;-73
2021/04/11 12:49:54;;;;;;;1.75;1.20;;;;;;;5.32;90.85;100938.38;6222722;28;20093;-73
2021/04/11 12:53:10;;;;;;;5.28;1.40;;;;;;;5.23;90.18;100946.44;6222486;28;20049;-73
2021/04/11 12:56:14;;;;;;;2.53;1.10;;;;;;;5.28;91.67;100957.59;6270406;23;20049;-82
2021/04/11 12:59:20;;;;;;;2.75;1.50;;;;;;;5.30;91.32;100953.16;6274275;28;20045;-82
2021/04/11 13:02:28;;;;;;;2.42;1.17;;;;;;;5.19;91.21;100957.00;6273451;28;20040;-82
2021/04/11 13:05:33;;;;;;;3.83;1.23;;;;;;;5.07;92.07;100956.41;6260401;28;20064;-81
2021/04/11 13:08:43;;;;;;;3.60;1.23;;;;;;;4.95;93.63;100963.69;6233767;28;20053;-82
2021/04/11 13:11:50;;;;;;;1.85;1.10;;;;;;;5.03;95.19;100960.00;6240012;28;20050;-82
2021/04/11 13:15:02;;;;;;;3.25;1.50;;;;;;;5.00;94.47;100965.31;6248133;28;20390;-79
2021/04/11 13:18:20;;;;;;;1.65;1.10;;;;;;;5.06;94.29;100985.13;6248541;28;20107;-83
2021/04/11 13:21:25;;;;;;;3.38;1.38;;;;;;;4.91;94.81;100982.94;6250214;28;20103;-82
2021/04/11 13:24:32;;;;;;;3.70;1.30;;;;;;;5.05;94.38;100991.22;6232615;28;20045;-82
2021/04/11 13:27:37;;;;;;;2.65;1.20;;;;;;;4.72;94.15;100990.34;6223920;28;20046;-83
2021/04/11 13:30:44;;;;;;;2.42;1.30;;;;;;;4.74;95.67;100985.97;6224201;28;20057;-83
2021/04/11 13:33:50;;;;;;;2.35;1.17;;;;;;;4.83;96.49;100996.13;6237810;28;20052;-82
2021/04/11 13:36:54;;;;;;;2.47;1.30;;;;;;;4.96;96.34;100996.69;6247458;28;20045;-82
2021/04/11 13:40:01;;;;;;;2.60;1.10;;;;;;;4.72;95.90;101000.75;6247502;28;20073;-83
2021/04/11 13:43:19;;;;;;;3.13;1.48;;;;;;;4.68;98.40;101018.22;6247105;28;20058;-83
2021/04/11 13:46:34;;;;;;;1.80;1.10;;;;;;;4.76;95.54;101024.06;6247443;28;20064;-85
2021/04/11 13:49:42;;;;;;;3.13;1.30;;;;;;;4.77;96.30;101028.41;6247213;28;20050;-84
2021/04/11 13:52:46;;;;;;;3.72;1.80;;;;;;;4.80;97.39;101030.91;6247476;28;20049;-84
2021/04/11 13:55:57;;;;;;;3.38;1.58;;;;;;;4.81;98.35;101044.78;6247164;28;20065;-82
2021/04/11 13:59:05;;;;;;;2.60;1.50;;;;;;;5.02;95.30;101040.78;6247770;28;20049;-84
2021/04/11 14:02:20;;;;;;;7.85;1.58;;;;;;;4.79;97.32;101055.25;6247889;28;20127;-84
2021/04/11 14:05:27;;;;;;;3.25;1.23;;;;;;;4.65;93.69;101048.66;6247062;28;20060;-83
2021/04/11 14:08:35;;;;;;;3.10;1.48;;;;;;;4.62;93.53;101065.19;6247043;28;20057;-80
2021/04/11 14:11:42;;;;;;;2.55;1.27;;;;;;;4.64;93.71;101062.56;6246378;28;20497;-83
2021/04/11 14:14:49;;;;;;;3.53;1.23;;;;;;;4.62;94.52;101066.94;6246950;28;20045;-83
2021/04/11 14:17:59;;;;;;;7.65;1.75;;;;;;;4.52;94.15;101067.16;6247305;28;20505;-82
2021/04/11 14:21:09;;;;;;;3.78;1.23;;;;;;;4.54;94.21;101075.81;6247175;28;20056;-83
2021/04/11 14:24:21;;;;;;;8.18;1.58;;;;;;;4.52;95.38;101077.56;6248046;28;20069;-84
2021/04/11 14:27:29;;;;;;;5.28;2.28;;;;;;;4.40;96.79;101077.84;6247891;28;20053;-83
2021/04/11 14:30:36;;;;;;;5.28;1.48;;;;;;;4.42;95.98;101083.88;6247086;28;20057;-83
2021/04/11 14:33:39;;;;;;;1.95;1.58;;;;;;;4.41;95.97;101082.19;6246652;28;20053;-83
2021/04/11 14:36:44;;;;;;;5.22;1.48;;;;;;;4.32;96.17;101087.59;6246435;28;20183;-83